Terminal Aerodrome Forecast
Issued by NWS Spokane, WA

Home | Current Version | Previous Version | Text Only | Print | Product List | Glossary On
Versions: 1 2 3 4 5 6 7 8 9 10 11 12 13 14 15 16 17 18 19 20 21 22 23 24 25 26 27 28 29 30 31 32 33 34 35 36 37 38 39 40 41 42 43 44 45 46 47 48
000
FTUS46 KOTX 231853 AAA
TAFEAT
TAF AMD
KEAT 231853Z 2319/2418 VRB02KT 3SM -SN BR VCSH FEW004 OVC012
      TEMPO 2319/2320 1 1/2SM -SN BR BKN006 OVC012
     FM232000 VRB03KT 1SM -SN BR SCT006 OVC009
     FM240000 13002KT 2SM -SN BR OVC015
     FM240500 09002KT 6SM BR VCSH OVC015
     FM241300 VRB02KT 6SM -RA BR SCT008 OVC020=

USA.gov is the U.S. government's official web portal to all federal, state and local government web resources and services.